sensor_id;sensor_type;location;lat;lon;timestamp;P1;durP1;ratioP1;P2;durP2;ratioP2
20880;SDS011;10600;53.096;8.802;2022-09-27T00:00:09;29.30;;;19.13;;
20880;SDS011;10600;53.096;8.802;2022-09-27T00:01:11;28.52;;;19.50;;
20880;SDS011;10600;53.096;8.802;2022-09-27T00:02:12;31.48;;;18.65;;
20880;SDS011;10600;53.096;8.802;2022-09-27T00:03:13;29.65;;;19.10;;
20880;SDS011;10600;53.096;8.802;2022-09-27T00:04:14;31.38;;;19.27;;
20880;SDS011;10600;53.096;8.802;2022-09-27T00:05:15;31.65;;;20.02;;
20880;SDS011;10600;53.096;8.802;2022-09-27T00:06:21;31.98;;;19.73;;
20880;SDS011;10600;53.096;8.802;2022-09-27T00:07:27;28.35;;;18.35;;
20880;SDS011;10600;53.096;8.802;2022-09-27T00:08:27;31.45;;;20.02;;
20880;SDS011;10600;53.096;8.802;2022-09-27T00:09:28;31.23;;;19.98;;
20880;SDS011;10600;53.096;8.802;2022-09-27T00:10:29;31.10;;;20.48;;
20880;SDS011;10600;53.096;8.802;2022-09-27T00:11:34;30.83;;;20.08;;
20880;SDS011;10600;53.096;8.802;2022-09-27T00:12:37;30.90;;;20.10;;
20880;SDS011;10600;53.096;8.802;2022-09-27T00:13:38;30.63;;;19.98;;
20880;SDS011;10600;53.096;8.802;2022-09-27T00:14:39;35.08;;;21.83;;
20880;SDS011;10600;53.096;8.802;2022-09-27T00:15:39;34.55;;;20.65;;
20880;SDS011;10600;53.096;8.802;2022-09-27T00:16:41;35.58;;;21.80;;
20880;SDS011;10600;53.096;8.802;2022-09-27T00:17:42;36.15;;;21.50;;
20880;SDS011;10600;53.096;8.802;2022-09-27T00:18:43;33.80;;;21.05;;
20880;SDS011;10600;53.096;8.802;2022-09-27T00:19:43;36.83;;;22.23;;
20880;SDS011;10600;53.096;8.802;2022-09-27T00:20:44;35.20;;;21.52;;
20880;SDS011;10600;53.096;8.802;2022-09-27T00:21:45;36.30;;;21.55;;
20880;SDS011;10600;53.096;8.802;2022-09-27T00:22:47;36.95;;;22.95;;
20880;SDS011;10600;53.096;8.802;2022-09-27T00:23:48;40.38;;;23.02;;
20880;SDS011;10600;53.096;8.802;2022-09-27T00:24:49;40.83;;;22.95;;
20880;SDS011;10600;53.096;8.802;2022-09-27T00:25:56;38.75;;;23.25;;
20880;SDS011;10600;53.096;8.802;2022-09-27T00:26:58;41.58;;;24.25;;
20880;SDS011;10600;53.096;8.802;2022-09-27T00:27:58;40.80;;;24.02;;
20880;SDS011;10600;53.096;8.802;2022-09-27T00:28:59;40.17;;;23.10;;
20880;SDS011;10600;53.096;8.802;2022-09-27T00:30:00;45.90;;;24.55;;
20880;SDS011;10600;53.096;8.802;2022-09-27T00:31:00;43.55;;;24.88;;
20880;SDS011;10600;53.096;8.802;2022-09-27T00:32:01;43.40;;;24.60;;
20880;SDS011;10600;53.096;8.802;2022-09-27T00:33:02;43.03;;;24.42;;
20880;SDS011;10600;53.096;8.802;2022-09-27T00:34:04;45.95;;;25.23;;
20880;SDS011;10600;53.096;8.802;2022-09-27T00:35:05;41.60;;;24.30;;
20880;SDS011;10600;53.096;8.802;2022-09-27T00:36:08;46.67;;;24.45;;
20880;SDS011;10600;53.096;8.802;2022-09-27T00:37:09;45.55;;;25.42;;
20880;SDS011;10600;53.096;8.802;2022-09-27T00:38:10;47.20;;;25.95;;
20880;SDS011;10600;53.096;8.802;2022-09-27T00:39:12;48.42;;;25.85;;
20880;SDS011;10600;53.096;8.802;2022-09-27T00:40:13;47.83;;;25.40;;
20880;SDS011;10600;53.096;8.802;2022-09-27T00:41:15;55.00;;;26.83;;
20880;SDS011;10600;53.096;8.802;2022-09-27T00:42:18;52.15;;;27.17;;
20880;SDS011;10600;53.096;8.802;2022-09-27T00:43:21;55.78;;;28.40;;
20880;SDS011;10600;53.096;8.802;2022-09-27T00:45:27;54.85;;;27.25;;
20880;SDS011;10600;53.096;8.802;2022-09-27T00:46:44;52.72;;;26.85;;
20880;SDS011;10600;53.096;8.802;2022-09-27T00:47:51;52.83;;;27.70;;
20880;SDS011;10600;53.096;8.802;2022-09-27T00:51:29;53.95;;;27.23;;
20880;SDS011;10600;53.096;8.802;2022-09-27T00:52:44;53.20;;;27.38;;
20880;SDS011;10600;53.096;8.802;2022-09-27T00:53:49;60.72;;;27.92;;
20880;SDS011;10600;53.096;8.802;2022-09-27T00:54:57;60.03;;;29.23;;
20880;SDS011;10600;53.096;8.802;2022-09-27T00:56:05;58.50;;;28.42;;
20880;SDS011;10600;53.096;8.802;2022-09-27T00:57:11;61.65;;;28.85;;
20880;SDS011;10600;53.096;8.802;2022-09-27T00:58:12;60.38;;;29.67;;
20880;SDS011;10600;53.096;8.802;2022-09-27T00:59:28;63.90;;;30.02;;
20880;SDS011;10600;53.096;8.802;2022-09-27T01:00:33;57.53;;;29.27;;
20880;SDS011;10600;53.096;8.802;2022-09-27T01:01:37;59.65;;;29.40;;
20880;SDS011;10600;53.096;8.802;2022-09-27T01:02:40;60.05;;;29.00;;
20880;SDS011;10600;53.096;8.802;2022-09-27T01:03:49;57.38;;;28.15;;
20880;SDS011;10600;53.096;8.802;2022-09-27T01:04:50;62.15;;;29.52;;
20880;SDS011;10600;53.096;8.802;2022-09-27T01:05:53;63.20;;;29.73;;
20880;SDS011;10600;53.096;8.802;2022-09-27T01:06:54;66.70;;;29.55;;
20880;SDS011;10600;53.096;8.802;2022-09-27T01:07:55;62.72;;;29.25;;
20880;SDS011;10600;53.096;8.802;2022-09-27T01:08:58;62.25;;;27.77;;
20880;SDS011;10600;53.096;8.802;2022-09-27T01:09:59;67.03;;;31.77;;
20880;SDS011;10600;53.096;8.802;2022-09-27T01:15:41;64.30;;;26.52;;
20880;SDS011;10600;53.096;8.802;2022-09-27T01:17:01;61.92;;;27.27;;
20880;SDS011;10600;53.096;8.802;2022-09-27T01:30:15;43.00;;;21.88;;
20880;SDS011;10600;53.096;8.802;2022-09-27T01:35:28;48.33;;;21.55;;
20880;SDS011;10600;53.096;8.802;2022-09-27T01:38:56;43.03;;;20.60;;
20880;SDS011;10600;53.096;8.802;2022-09-27T01:40:23;39.50;;;18.92;;
20880;SDS011;10600;53.096;8.802;2022-09-27T01:42:39;43.97;;;19.80;;
20880;SDS011;10600;53.096;8.802;2022-09-27T01:43:52;46.08;;;20.08;;
20880;SDS011;10600;53.096;8.802;2022-09-27T01:45:02;40.17;;;19.25;;
20880;SDS011;10600;53.096;8.802;2022-09-27T01:46:10;37.35;;;15.43;;
20880;SDS011;10600;53.096;8.802;2022-09-27T01:47:55;39.80;;;19.08;;
20880;SDS011;10600;53.096;8.802;2022-09-27T01:48:58;39.40;;;16.33;;
20880;SDS011;10600;53.096;8.802;2022-09-27T01:50:08;33.92;;;15.23;;
20880;SDS011;10600;53.096;8.802;2022-09-27T01:51:17;41.13;;;17.67;;
20880;SDS011;10600;53.096;8.802;2022-09-27T01:52:38;36.42;;;17.20;;
20880;SDS011;10600;53.096;8.802;2022-09-27T01:53:52;36.35;;;17.23;;
20880;SDS011;10600;53.096;8.802;2022-09-27T01:54:57;43.47;;;18.77;;
20880;SDS011;10600;53.096;8.802;2022-09-27T01:56:05;31.30;;;14.45;;
20880;SDS011;10600;53.096;8.802;2022-09-27T01:57:10;36.60;;;16.75;;
20880;SDS011;10600;53.096;8.802;2022-09-27T01:59:30;33.78;;;17.08;;
20880;SDS011;10600;53.096;8.802;2022-09-27T02:00:33;35.38;;;17.77;;
20880;SDS011;10600;53.096;8.802;2022-09-27T02:01:35;34.63;;;15.40;;
20880;SDS011;10600;53.096;8.802;2022-09-27T02:03:00;27.90;;;14.30;;
20880;SDS011;10600;53.096;8.802;2022-09-27T02:04:10;30.10;;;13.02;;
20880;SDS011;10600;53.096;8.802;2022-09-27T02:05:14;25.02;;;11.98;;
20880;SDS011;10600;53.096;8.802;2022-09-27T02:06:18;25.33;;;13.90;;
20880;SDS011;10600;53.096;8.802;2022-09-27T02:07:31;30.17;;;14.27;;
20880;SDS011;10600;53.096;8.802;2022-09-27T02:08:48;29.08;;;12.57;;
20880;SDS011;10600;53.096;8.802;2022-09-27T02:10:01;23.48;;;13.88;;
20880;SDS011;10600;53.096;8.802;2022-09-27T02:11:09;28.40;;;12.55;;
20880;SDS011;10600;53.096;8.802;2022-09-27T02:12:13;24.27;;;12.57;;
20880;SDS011;10600;53.096;8.802;2022-09-27T02:13:24;26.52;;;11.25;;
20880;SDS011;10600;53.096;8.802;2022-09-27T02:14:35;23.45;;;11.68;;
20880;SDS011;10600;53.096;8.802;2022-09-27T02:16:03;17.90;;;9.40;;
20880;SDS011;10600;53.096;8.802;2022-09-27T02:18:22;17.35;;;9.32;;
20880;SDS011;10600;53.096;8.802;2022-09-27T02:20:48;21.42;;;11.55;;
20880;SDS011;10600;53.096;8.802;2022-09-27T02:23:38;20.20;;;10.27;;
20880;SDS011;10600;53.096;8.802;2022-09-27T02:24:57;22.90;;;10.48;;
20880;SDS011;10600;53.096;8.802;2022-09-27T02:26:03;19.27;;;9.93;;
20880;SDS011;10600;53.096;8.802;2022-09-27T02:27:12;14.85;;;7.47;;
20880;SDS011;10600;53.096;8.802;2022-09-27T02:29:48;8.25;;;4.05;;
20880;SDS011;10600;53.096;8.802;2022-09-27T02:30:57;13.48;;;8.05;;
20880;SDS011;10600;53.096;8.802;2022-09-27T02:31:58;12.80;;;7.85;;
20880;SDS011;10600;53.096;8.802;2022-09-27T02:32:59;13.23;;;7.50;;
20880;SDS011;10600;53.096;8.802;2022-09-27T02:34:02;14.50;;;8.38;;
20880;SDS011;10600;53.096;8.802;2022-09-27T02:35:11;16.95;;;8.70;;
20880;SDS011;10600;53.096;8.802;2022-09-27T02:36:23;15.95;;;8.10;;
20880;SDS011;10600;53.096;8.802;2022-09-27T02:37:24;12.32;;;7.75;;
20880;SDS011;10600;53.096;8.802;2022-09-27T02:38:24;16.02;;;8.82;;
20880;SDS011;10600;53.096;8.802;2022-09-27T02:39:25;11.95;;;7.15;;
20880;SDS011;10600;53.096;8.802;2022-09-27T02:40:30;12.40;;;7.50;;
20880;SDS011;10600;53.096;8.802;2022-09-27T02:41:33;15.88;;;7.63;;
20880;SDS011;10600;53.096;8.802;2022-09-27T02:42:33;15.20;;;7.40;;
20880;SDS011;10600;53.096;8.802;2022-09-27T02:43:34;15.43;;;8.32;;
20880;SDS011;10600;53.096;8.802;2022-09-27T02:44:35;15.40;;;8.63;;
20880;SDS011;10600;53.096;8.802;2022-09-27T02:46:20;15.65;;;7.60;;
20880;SDS011;10600;53.096;8.802;2022-09-27T02:47:15;17.77;;;7.88;;
20880;SDS011;10600;53.096;8.802;2022-09-27T02:48:25;13.23;;;7.03;;
20880;SDS011;10600;53.096;8.802;2022-09-27T02:51:27;9.40;;;5.30;;
20880;SDS011;10600;53.096;8.802;2022-09-27T02:53:18;13.77;;;7.38;;
20880;SDS011;10600;53.096;8.802;2022-09-27T02:57:14;15.40;;;5.80;;
20880;SDS011;10600;53.096;8.802;2022-09-27T02:58:37;13.15;;;5.47;;
20880;SDS011;10600;53.096;8.802;2022-09-27T03:05:09;9.45;;;4.50;;
20880;SDS011;10600;53.096;8.802;2022-09-27T03:06:16;9.48;;;4.85;;
20880;SDS011;10600;53.096;8.802;2022-09-27T03:07:19;9.43;;;4.63;;
20880;SDS011;10600;53.096;8.802;2022-09-27T03:08:21;12.77;;;5.30;;
20880;SDS011;10600;53.096;8.802;2022-09-27T03:09:23;10.98;;;5.03;;
20880;SDS011;10600;53.096;8.802;2022-09-27T03:10:28;9.25;;;5.40;;
20880;SDS011;10600;53.096;8.802;2022-09-27T03:11:29;10.60;;;4.80;;
20880;SDS011;10600;53.096;8.802;2022-09-27T03:12:29;9.70;;;5.28;;
20880;SDS011;10600;53.096;8.802;2022-09-27T03:13:30;13.20;;;5.45;;
20880;SDS011;10600;53.096;8.802;2022-09-27T03:14:33;12.65;;;5.60;;
20880;SDS011;10600;53.096;8.802;2022-09-27T03:15:34;12.80;;;5.65;;
20880;SDS011;10600;53.096;8.802;2022-09-27T03:16:35;10.40;;;5.60;;
20880;SDS011;10600;53.096;8.802;2022-09-27T03:17:35;10.63;;;5.07;;
20880;SDS011;10600;53.096;8.802;2022-09-27T03:18:36;13.77;;;5.72;;
20880;SDS011;10600;53.096;8.802;2022-09-27T03:19:36;12.30;;;4.93;;
20880;SDS011;10600;53.096;8.802;2022-09-27T03:20:37;12.52;;;5.15;;
20880;SDS011;10600;53.096;8.802;2022-09-27T03:21:38;7.82;;;5.00;;
20880;SDS011;10600;53.096;8.802;2022-09-27T03:22:38;12.35;;;4.50;;
20880;SDS011;10600;53.096;8.802;2022-09-27T03:23:40;8.10;;;4.30;;
20880;SDS011;10600;53.096;8.802;2022-09-27T03:24:41;8.90;;;4.53;;
20880;SDS011;10600;53.096;8.802;2022-09-27T03:25:42;10.93;;;3.90;;
20880;SDS011;10600;53.096;8.802;2022-09-27T03:26:43;6.82;;;4.57;;
20880;SDS011;10600;53.096;8.802;2022-09-27T03:27:43;8.32;;;4.40;;
20880;SDS011;10600;53.096;8.802;2022-09-27T03:28:44;10.00;;;4.47;;
20880;SDS011;10600;53.096;8.802;2022-09-27T03:29:45;10.07;;;4.20;;
20880;SDS011;10600;53.096;8.802;2022-09-27T03:30:45;12.77;;;5.32;;
20880;SDS011;10600;53.096;8.802;2022-09-27T03:31:46;8.93;;;4.10;;
20880;SDS011;10600;53.096;8.802;2022-09-27T03:32:47;10.52;;;4.10;;
20880;SDS011;10600;53.096;8.802;2022-09-27T03:33:47;8.23;;;3.78;;
20880;SDS011;10600;53.096;8.802;2022-09-27T03:34:48;7.22;;;3.38;;
20880;SDS011;10600;53.096;8.802;2022-09-27T03:35:50;8.65;;;4.18;;
20880;SDS011;10600;53.096;8.802;2022-09-27T03:36:51;10.27;;;4.05;;
20880;SDS011;10600;53.096;8.802;2022-09-27T03:37:51;10.52;;;4.18;;
20880;SDS011;10600;53.096;8.802;2022-09-27T03:38:52;7.57;;;2.70;;
20880;SDS011;10600;53.096;8.802;2022-09-27T03:39:53;8.23;;;3.47;;
20880;SDS011;10600;53.096;8.802;2022-09-27T03:40:54;8.82;;;3.30;;
20880;SDS011;10600;53.096;8.802;2022-09-27T03:41:54;7.50;;;3.08;;
20880;SDS011;10600;53.096;8.802;2022-09-27T03:42:56;8.45;;;3.42;;
20880;SDS011;10600;53.096;8.802;2022-09-27T03:43:57;9.82;;;3.63;;
20880;SDS011;10600;53.096;8.802;2022-09-27T03:44:58;8.73;;;3.55;;
20880;SDS011;10600;53.096;8.802;2022-09-27T03:45:59;9.40;;;3.63;;
20880;SDS011;10600;53.096;8.802;2022-09-27T03:47:00;11.25;;;3.80;;
20880;SDS011;10600;53.096;8.802;2022-09-27T03:48:00;7.20;;;3.17;;
20880;SDS011;10600;53.096;8.802;2022-09-27T03:49:01;7.25;;;2.80;;
20880;SDS011;10600;53.096;8.802;2022-09-27T03:50:02;11.57;;;3.00;;
20880;SDS011;10600;53.096;8.802;2022-09-27T03:51:03;16.05;;;3.90;;
20880;SDS011;10600;53.096;8.802;2022-09-27T03:52:04;8.02;;;2.97;;
20880;SDS011;10600;53.096;8.802;2022-09-27T03:53:04;12.27;;;3.83;;
20880;SDS011;10600;53.096;8.802;2022-09-27T03:54:05;8.93;;;2.92;;
20880;SDS011;10600;53.096;8.802;2022-09-27T03:55:05;8.27;;;3.20;;
20880;SDS011;10600;53.096;8.802;2022-09-27T03:56:06;7.82;;;3.30;;
20880;SDS011;10600;53.096;8.802;2022-09-27T03:57:07;7.15;;;2.85;;
20880;SDS011;10600;53.096;8.802;2022-09-27T03:58:08;9.27;;;3.28;;
20880;SDS011;10600;53.096;8.802;2022-09-27T03:59:09;8.30;;;3.47;;
20880;SDS011;10600;53.096;8.802;2022-09-27T04:00:10;12.70;;;3.65;;
20880;SDS011;10600;53.096;8.802;2022-09-27T04:01:11;7.03;;;3.30;;
20880;SDS011;10600;53.096;8.802;2022-09-27T04:02:12;11.05;;;3.75;;
20880;SDS011;10600;53.096;8.802;2022-09-27T04:03:13;8.48;;;3.10;;
20880;SDS011;10600;53.096;8.802;2022-09-27T04:04:14;9.77;;;3.58;;
20880;SDS011;10600;53.096;8.802;2022-09-27T04:05:14;9.80;;;3.80;;
20880;SDS011;10600;53.096;8.802;2022-09-27T04:06:15;12.35;;;4.05;;
20880;SDS011;10600;53.096;8.802;2022-09-27T04:07:17;8.90;;;4.95;;
20880;SDS011;10600;53.096;8.802;2022-09-27T04:08:18;11.75;;;4.97;;
20880;SDS011;10600;53.096;8.802;2022-09-27T04:09:21;12.30;;;5.40;;
20880;SDS011;10600;53.096;8.802;2022-09-27T04:10:21;13.70;;;6.10;;
20880;SDS011;10600;53.096;8.802;2022-09-27T04:11:22;13.10;;;6.22;;
20880;SDS011;10600;53.096;8.802;2022-09-27T04:12:23;12.68;;;6.15;;
20880;SDS011;10600;53.096;8.802;2022-09-27T04:13:24;14.13;;;6.25;;
20880;SDS011;10600;53.096;8.802;2022-09-27T04:14:24;15.98;;;5.47;;
20880;SDS011;10600;53.096;8.802;2022-09-27T04:15:25;14.75;;;7.30;;
20880;SDS011;10600;53.096;8.802;2022-09-27T04:16:26;19.77;;;7.57;;
20880;SDS011;10600;53.096;8.802;2022-09-27T04:17:26;17.60;;;8.15;;
20880;SDS011;10600;53.096;8.802;2022-09-27T04:18:27;16.20;;;7.68;;
20880;SDS011;10600;53.096;8.802;2022-09-27T04:19:29;18.38;;;8.35;;
20880;SDS011;10600;53.096;8.802;2022-09-27T04:20:29;19.35;;;8.88;;
20880;SDS011;10600;53.096;8.802;2022-09-27T04:21:30;17.38;;;7.82;;
20880;SDS011;10600;53.096;8.802;2022-09-27T04:22:31;19.70;;;8.88;;
20880;SDS011;10600;53.096;8.802;2022-09-27T04:23:31;22.70;;;9.55;;
20880;SDS011;10600;53.096;8.802;2022-09-27T04:24:32;20.20;;;8.98;;
20880;SDS011;10600;53.096;8.802;2022-09-27T04:25:33;24.10;;;9.55;;
20880;SDS011;10600;53.096;8.802;2022-09-27T04:26:34;21.00;;;9.35;;
20880;SDS011;10600;53.096;8.802;2022-09-27T04:27:35;21.05;;;8.75;;
20880;SDS011;10600;53.096;8.802;2022-09-27T04:28:36;18.50;;;8.88;;
20880;SDS011;10600;53.096;8.802;2022-09-27T04:29:36;23.23;;;10.10;;
20880;SDS011;10600;53.096;8.802;2022-09-27T04:30:41;20.52;;;9.95;;
20880;SDS011;10600;53.096;8.802;2022-09-27T04:31:42;22.63;;;9.52;;
20880;SDS011;10600;53.096;8.802;2022-09-27T04:32:46;23.58;;;8.23;;
20880;SDS011;10600;53.096;8.802;2022-09-27T04:33:46;25.13;;;9.27;;
20880;SDS011;10600;53.096;8.802;2022-09-27T04:34:47;16.48;;;8.18;;
20880;SDS011;10600;53.096;8.802;2022-09-27T04:36:06;22.88;;;9.98;;
20880;SDS011;10600;53.096;8.802;2022-09-27T04:37:25;23.02;;;10.52;;
20880;SDS011;10600;53.096;8.802;2022-09-27T04:38:26;24.52;;;10.27;;
20880;SDS011;10600;53.096;8.802;2022-09-27T04:39:27;23.85;;;10.25;;
20880;SDS011;10600;53.096;8.802;2022-09-27T04:40:28;24.40;;;8.60;;
20880;SDS011;10600;53.096;8.802;2022-09-27T04:41:28;21.67;;;8.85;;
20880;SDS011;10600;53.096;8.802;2022-09-27T04:42:30;21.35;;;9.40;;
20880;SDS011;10600;53.096;8.802;2022-09-27T04:43:30;18.50;;;9.40;;
20880;SDS011;10600;53.096;8.802;2022-09-27T04:44:31;19.13;;;9.13;;
20880;SDS011;10600;53.096;8.802;2022-09-27T04:45:32;21.30;;;9.75;;
20880;SDS011;10600;53.096;8.802;2022-09-27T04:46:32;18.85;;;8.25;;
20880;SDS011;10600;53.096;8.802;2022-09-27T04:47:34;23.20;;;9.43;;
20880;SDS011;10600;53.096;8.802;2022-09-27T04:48:34;24.02;;;9.73;;
20880;SDS011;10600;53.096;8.802;2022-09-27T04:49:36;21.70;;;9.07;;
20880;SDS011;10600;53.096;8.802;2022-09-27T04:50:37;19.27;;;10.00;;
20880;SDS011;10600;53.096;8.802;2022-09-27T04:51:39;22.42;;;9.40;;
20880;SDS011;10600;53.096;8.802;2022-09-27T04:52:40;19.40;;;8.77;;
20880;SDS011;10600;53.096;8.802;2022-09-27T04:53:40;15.88;;;7.40;;
20880;SDS011;10600;53.096;8.802;2022-09-27T04:54:41;24.02;;;9.52;;
20880;SDS011;10600;53.096;8.802;2022-09-27T04:55:48;19.00;;;8.90;;
20880;SDS011;10600;53.096;8.802;2022-09-27T04:56:49;19.55;;;9.40;;
20880;SDS011;10600;53.096;8.802;2022-09-27T04:57:49;20.60;;;9.27;;
20880;SDS011;10600;53.096;8.802;2022-09-27T04:58:50;15.32;;;8.02;;
20880;SDS011;10600;53.096;8.802;2022-09-27T04:59:50;17.50;;;8.32;;
20880;SDS011;10600;53.096;8.802;2022-09-27T05:00:51;17.48;;;8.80;;
20880;SDS011;10600;53.096;8.802;2022-09-27T05:01:54;18.50;;;8.57;;
20880;SDS011;10600;53.096;8.802;2022-09-27T05:02:58;19.08;;;8.65;;
20880;SDS011;10600;53.096;8.802;2022-09-27T05:03:59;14.60;;;7.72;;
20880;SDS011;10600;53.096;8.802;2022-09-27T05:04:59;17.30;;;8.48;;
20880;SDS011;10600;53.096;8.802;2022-09-27T05:06:00;20.13;;;8.65;;
20880;SDS011;10600;53.096;8.802;2022-09-27T05:07:01;17.05;;;8.13;;
20880;SDS011;10600;53.096;8.802;2022-09-27T05:08:02;15.95;;;8.27;;
20880;SDS011;10600;53.096;8.802;2022-09-27T05:09:03;19.80;;;8.45;;
20880;SDS011;10600;53.096;8.802;2022-09-27T05:10:04;22.25;;;8.00;;
20880;SDS011;10600;53.096;8.802;2022-09-27T05:11:06;20.58;;;7.82;;
20880;SDS011;10600;53.096;8.802;2022-09-27T05:12:06;17.10;;;7.93;;
20880;SDS011;10600;53.096;8.802;2022-09-27T05:13:07;16.25;;;7.55;;
20880;SDS011;10600;53.096;8.802;2022-09-27T05:14:08;16.65;;;7.90;;
20880;SDS011;10600;53.096;8.802;2022-09-27T05:15:09;19.20;;;8.60;;
20880;SDS011;10600;53.096;8.802;2022-09-27T05:16:09;17.67;;;7.57;;
20880;SDS011;10600;53.096;8.802;2022-09-27T05:17:10;14.05;;;6.72;;
20880;SDS011;10600;53.096;8.802;2022-09-27T05:18:11;14.77;;;7.10;;
20880;SDS011;10600;53.096;8.802;2022-09-27T05:19:12;15.70;;;7.82;;
20880;SDS011;10600;53.096;8.802;2022-09-27T05:20:13;17.55;;;6.57;;
20880;SDS011;10600;53.096;8.802;2022-09-27T05:21:13;14.75;;;7.45;;
20880;SDS011;10600;53.096;8.802;2022-09-27T05:22:14;14.70;;;5.35;;
20880;SDS011;10600;53.096;8.802;2022-09-27T05:23:15;12.57;;;6.57;;
20880;SDS011;10600;53.096;8.802;2022-09-27T05:24:15;17.70;;;6.72;;
20880;SDS011;10600;53.096;8.802;2022-09-27T05:25:16;12.38;;;5.15;;
20880;SDS011;10600;53.096;8.802;2022-09-27T05:26:17;8.40;;;4.40;;
20880;SDS011;10600;53.096;8.802;2022-09-27T05:27:18;11.30;;;5.78;;
20880;SDS011;10600;53.096;8.802;2022-09-27T05:28:19;16.20;;;7.35;;
20880;SDS011;10600;53.096;8.802;2022-09-27T05:29:20;13.70;;;6.82;;
20880;SDS011;10600;53.096;8.802;2022-09-27T05:30:20;17.90;;;6.10;;
20880;SDS011;10600;53.096;8.802;2022-09-27T05:31:21;11.68;;;6.03;;
20880;SDS011;10600;53.096;8.802;2022-09-27T05:32:22;14.27;;;7.18;;
20880;SDS011;10600;53.096;8.802;2022-09-27T05:33:22;14.48;;;5.93;;
20880;SDS011;10600;53.096;8.802;2022-09-27T05:34:23;17.17;;;7.28;;
20880;SDS011;10600;53.096;8.802;2022-09-27T05:35:24;15.82;;;6.75;;
20880;SDS011;10600;53.096;8.802;2022-09-27T05:36:25;17.77;;;7.35;;
20880;SDS011;10600;53.096;8.802;2022-09-27T05:37:25;14.02;;;6.43;;
20880;SDS011;10600;53.096;8.802;2022-09-27T05:38:26;16.00;;;6.95;;
20880;SDS011;10600;53.096;8.802;2022-09-27T05:39:27;15.57;;;6.85;;
20880;SDS011;10600;53.096;8.802;2022-09-27T05:40:28;16.65;;;6.82;;
20880;SDS011;10600;53.096;8.802;2022-09-27T05:41:29;14.35;;;7.25;;
20880;SDS011;10600;53.096;8.802;2022-09-27T05:42:31;15.07;;;6.57;;
20880;SDS011;10600;53.096;8.802;2022-09-27T05:43:35;10.25;;;5.07;;
20880;SDS011;10600;53.096;8.802;2022-09-27T05:44:35;17.33;;;7.53;;
20880;SDS011;10600;53.096;8.802;2022-09-27T05:45:37;17.40;;;7.00;;
20880;SDS011;10600;53.096;8.802;2022-09-27T05:46:38;18.38;;;6.60;;
20880;SDS011;10600;53.096;8.802;2022-09-27T05:47:39;11.93;;;5.28;;
20880;SDS011;10600;53.096;8.802;2022-09-27T05:48:39;14.88;;;7.30;;
20880;SDS011;10600;53.096;8.802;2022-09-27T05:49:40;16.17;;;7.55;;
20880;SDS011;10600;53.096;8.802;2022-09-27T05:50:41;15.77;;;7.97;;
20880;SDS011;10600;53.096;8.802;2022-09-27T05:51:41;20.23;;;7.93;;
20880;SDS011;10600;53.096;8.802;2022-09-27T05:52:42;16.48;;;7.53;;
20880;SDS011;10600;53.096;8.802;2022-09-27T05:53:43;11.75;;;5.40;;
20880;SDS011;10600;53.096;8.802;2022-09-27T05:54:44;18.25;;;7.78;;
20880;SDS011;10600;53.096;8.802;2022-09-27T05:55:44;11.93;;;5.60;;
20880;SDS011;10600;53.096;8.802;2022-09-27T05:56:45;18.17;;;7.80;;
20880;SDS011;10600;53.096;8.802;2022-09-27T05:57:55;19.45;;;7.57;;
20880;SDS011;10600;53.096;8.802;2022-09-27T05:58:57;16.27;;;7.13;;
20880;SDS011;10600;53.096;8.802;2022-09-27T05:59:58;15.98;;;6.93;;
20880;SDS011;10600;53.096;8.802;2022-09-27T06:00:59;14.00;;;7.15;;
20880;SDS011;10600;53.096;8.802;2022-09-27T06:02:00;18.55;;;8.27;;
20880;SDS011;10600;53.096;8.802;2022-09-27T06:03:01;17.85;;;8.00;;
20880;SDS011;10600;53.096;8.802;2022-09-27T06:04:04;16.10;;;7.97;;
20880;SDS011;10600;53.096;8.802;2022-09-27T06:05:06;15.50;;;7.85;;
20880;SDS011;10600;53.096;8.802;2022-09-27T06:06:07;17.60;;;7.35;;
20880;SDS011;10600;53.096;8.802;2022-09-27T06:07:09;16.70;;;7.47;;
20880;SDS011;10600;53.096;8.802;2022-09-27T06:08:10;16.80;;;7.65;;
20880;SDS011;10600;53.096;8.802;2022-09-27T06:09:13;14.32;;;6.75;;
20880;SDS011;10600;53.096;8.802;2022-09-27T06:10:15;16.00;;;7.45;;
20880;SDS011;10600;53.096;8.802;2022-09-27T06:11:17;17.20;;;8.02;;
20880;SDS011;10600;53.096;8.802;2022-09-27T06:12:18;18.88;;;7.55;;
20880;SDS011;10600;53.096;8.802;2022-09-27T06:13:19;17.23;;;8.07;;
20880;SDS011;10600;53.096;8.802;2022-09-27T06:14:20;13.70;;;6.10;;
20880;SDS011;10600;53.096;8.802;2022-09-27T06:15:21;15.15;;;7.13;;
20880;SDS011;10600;53.096;8.802;2022-09-27T06:16:21;13.77;;;6.75;;
20880;SDS011;10600;53.096;8.802;2022-09-27T06:17:22;15.65;;;7.88;;
20880;SDS011;10600;53.096;8.802;2022-09-27T06:18:23;16.27;;;7.60;;
20880;SDS011;10600;53.096;8.802;2022-09-27T06:19:23;16.15;;;7.18;;
20880;SDS011;10600;53.096;8.802;2022-09-27T06:20:24;15.95;;;7.85;;
20880;SDS011;10600;53.096;8.802;2022-09-27T06:21:25;17.80;;;7.13;;
20880;SDS011;10600;53.096;8.802;2022-09-27T06:22:27;15.00;;;7.43;;
20880;SDS011;10600;53.096;8.802;2022-09-27T06:23:28;15.18;;;7.50;;
20880;SDS011;10600;53.096;8.802;2022-09-27T06:24:32;17.58;;;7.90;;
20880;SDS011;10600;53.096;8.802;2022-09-27T06:25:34;15.65;;;7.20;;
20880;SDS011;10600;53.096;8.802;2022-09-27T06:26:35;13.38;;;6.45;;
20880;SDS011;10600;53.096;8.802;2022-09-27T06:27:36;20.17;;;8.43;;
20880;SDS011;10600;53.096;8.802;2022-09-27T06:28:37;13.68;;;6.95;;
20880;SDS011;10600;53.096;8.802;2022-09-27T06:29:37;15.57;;;7.75;;
20880;SDS011;10600;53.096;8.802;2022-09-27T06:30:42;17.85;;;7.30;;
20880;SDS011;10600;53.096;8.802;2022-09-27T06:31:44;15.35;;;7.22;;
20880;SDS011;10600;53.096;8.802;2022-09-27T06:32:45;13.38;;;7.13;;
20880;SDS011;10600;53.096;8.802;2022-09-27T06:33:45;15.50;;;8.05;;
20880;SDS011;10600;53.096;8.802;2022-09-27T06:34:46;16.98;;;8.23;;
20880;SDS011;10600;53.096;8.802;2022-09-27T06:35:47;15.43;;;7.60;;
20880;SDS011;10600;53.096;8.802;2022-09-27T06:36:49;16.25;;;7.03;;
20880;SDS011;10600;53.096;8.802;2022-09-27T06:37:50;15.27;;;6.30;;
20880;SDS011;10600;53.096;8.802;2022-09-27T06:38:51;11.25;;;6.78;;
20880;SDS011;10600;53.096;8.802;2022-09-27T06:39:52;15.90;;;7.57;;
20880;SDS011;10600;53.096;8.802;2022-09-27T06:40:53;20.25;;;7.22;;
20880;SDS011;10600;53.096;8.802;2022-09-27T06:41:56;12.82;;;4.68;;
20880;SDS011;10600;53.096;8.802;2022-09-27T06:43:05;15.55;;;6.72;;
20880;SDS011;10600;53.096;8.802;2022-09-27T06:44:07;11.07;;;6.05;;
20880;SDS011;10600;53.096;8.802;2022-09-27T06:45:08;14.90;;;7.35;;
20880;SDS011;10600;53.096;8.802;2022-09-27T06:46:09;22.10;;;6.93;;
20880;SDS011;10600;53.096;8.802;2022-09-27T06:47:10;11.98;;;6.40;;
20880;SDS011;10600;53.096;8.802;2022-09-27T06:48:11;13.90;;;6.63;;
20880;SDS011;10600;53.096;8.802;2022-09-27T06:49:13;13.50;;;6.35;;
20880;SDS011;10600;53.096;8.802;2022-09-27T06:50:13;12.60;;;5.68;;
20880;SDS011;10600;53.096;8.802;2022-09-27T06:51:14;15.38;;;6.55;;
20880;SDS011;10600;53.096;8.802;2022-09-27T06:52:15;14.48;;;6.43;;
20880;SDS011;10600;53.096;8.802;2022-09-27T06:53:16;12.63;;;5.88;;
20880;SDS011;10600;53.096;8.802;2022-09-27T06:54:16;11.02;;;5.28;;
20880;SDS011;10600;53.096;8.802;2022-09-27T06:55:18;15.57;;;6.45;;
20880;SDS011;10600;53.096;8.802;2022-09-27T06:56:18;8.27;;;4.82;;
20880;SDS011;10600;53.096;8.802;2022-09-27T06:57:19;10.23;;;5.40;;
20880;SDS011;10600;53.096;8.802;2022-09-27T06:58:40;12.73;;;5.00;;
20880;SDS011;10600;53.096;8.802;2022-09-27T06:59:59;5.75;;;3.92;;